Time;durP1;ratioP1;P1;durP2;ratioP2;P2;SDS_P1;SDS_P2;PMS_P1;PMS_P2;Temp;Humidity;BMP_temperature;BMP_pressure;BME280_temperature;BME280_humidity;BME280_pressure;Samples;Min_cycle;Max_cycle;Signal;HPM_P1;HPM_P2
2022/04/22 00:01:24;;;;;;;5.25;4.00;;;;;;;;;;5053746;28;19928;-83
2022/04/22 00:03:51;;;;;;;4.80;3.78;;;;;;;;;;5053826;28;20152;-83
2022/04/22 00:06:17;;;;;;;3.70;3.30;;;;;;;;;;5053948;28;20049;-83
2022/04/22 00:08:44;;;;;;;4.55;4.00;;;;;;;;;;5052368;28;20546;-83
2022/04/22 00:11:29;;;;;;;4.93;3.90;;;;;;;;;;5053963;28;20084;-82
2022/04/22 00:13:57;;;;;;;5.50;4.20;;;;;;;;;;5051137;28;20071;-82
2022/04/22 00:16:23;;;;;;;;;;;;;;;;;;5054277;28;20048;-82
2022/04/22 00:18:49;;;;;;;5.70;3.75;;;;;;;;;;5052339;28;19935;-82
2022/04/22 00:21:16;;;;;;;3.97;3.58;;;;;;;;;;5053591;28;20076;-82
2022/04/22 00:23:42;;;;;;;5.32;4.05;;;;;;;;;;5053299;28;20523;-82
2022/04/22 00:26:13;;;;;;;4.22;3.83;;;;;;;;;;5053778;28;20052;-82
2022/04/22 00:28:40;;;;;;;4.30;3.90;;;;;;;;;;5053600;28;20076;-82
2022/04/22 00:31:06;;;;;;;4.63;4.10;;;;;;;;;;5052294;28;20037;-83
2022/04/22 00:33:33;;;;;;;5.47;4.35;;;;;;;;;;5053156;28;20056;-83
2022/04/22 00:35:59;;;;;;;5.40;4.10;;;;;;;;;;5053404;28;20087;-83
2022/04/22 00:38:26;;;;;;;5.68;4.40;;;;;;;;;;5051889;28;20056;-82
2022/04/22 00:40:55;;;;;;;4.68;4.18;;;;;;;;;;5052493;28;20072;-82
2022/04/22 00:43:22;;;;;;;5.88;4.43;;;;;;;;;;5052016;28;20053;-82
2022/04/22 00:45:49;;;;;;;6.53;4.47;;;;;;;;;;5052952;28;20099;-82
2022/04/22 00:48:16;;;;;;;6.78;5.18;;;;;;;;;;5051750;28;20044;-82
2022/04/22 00:50:43;;;;;;;6.70;5.55;;;;;;;;;;5053258;28;20354;-82
2022/04/22 00:53:10;;;;;;;5.82;5.13;;;;;;;;;;5052719;28;20197;-82
2022/04/22 00:55:37;;;;;;;5.93;5.30;;;;;;;;;;5052875;28;20496;-82
2022/04/22 00:58:04;;;;;;;6.03;5.18;;;;;;;;;;5052865;28;20504;-82
2022/04/22 01:00:31;;;;;;;8.07;5.60;;;;;;;;;;5052892;28;20080;-83
2022/04/22 01:02:58;;;;;;;5.82;5.20;;;;;;;;;;5051691;28;20140;-82
2022/04/22 01:10:55;;;;;;;6.97;5.38;;;;;;;;;;5052734;28;20072;-83
2022/04/22 01:13:21;;;;;;;8.52;5.53;;;;;;;;;;5052553;28;20092;-83
2022/04/22 01:15:48;;;;;;;6.15;5.50;;;;;;;;;;5052625;28;20084;-82
2022/04/22 01:18:14;;;;;;;7.20;5.53;;;;;;;;;;5052617;28;20091;-83
2022/04/22 01:20:41;;;;;;;5.95;5.35;;;;;;;;;;5052285;28;20080;-83
2022/04/22 01:23:08;;;;;;;6.72;5.53;;;;;;;;;;5051055;28;20501;-84
2022/04/22 01:25:34;;;;;;;5.80;5.22;;;;;;;;;;5050644;28;20088;-83
2022/04/22 01:28:01;;;;;;;6.80;5.30;;;;;;;;;;5052740;28;20049;-83
2022/04/22 01:30:27;;;;;;;8.52;5.38;;;;;;;;;;5052044;28;20080;-84
2022/04/22 01:32:56;;;;;;;8.27;5.65;;;;;;;;;;5051953;28;20505;-83
2022/04/22 01:35:24;;;;;;;5.80;4.35;;;;;;;;;;5050770;28;20460;-83
2022/04/22 01:37:50;;;;;;;5.72;5.03;;;;;;;;;;5052143;28;20053;-82
2022/04/22 01:40:17;;;;;;;6.97;4.80;;;;;;;;;;5067297;28;20077;-83
2022/04/22 01:42:44;;;;;;;7.35;5.35;;;;;;;;;;5050979;28;20403;-82
2022/04/22 01:45:12;;;;;;;5.68;4.97;;;;;;;;;;5051804;28;20079;-83
2022/04/22 01:47:38;;;;;;;6.78;5.15;;;;;;;;;;5051757;28;20108;-82
2022/04/22 01:50:06;;;;;;;7.03;4.95;;;;;;;;;;5051951;28;20048;-83
2022/04/22 01:52:41;;;;;;;6.40;4.95;;;;;;;;;;5051965;28;20049;-83
2022/04/22 01:55:08;;;;;;;5.50;4.45;;;;;;;;;;5051950;28;20047;-84
2022/04/22 01:57:34;;;;;;;5.80;4.70;;;;;;;;;;5050308;28;20080;-83
2022/04/22 02:00:02;;;;;;;7.78;5.03;;;;;;;;;;5051516;28;20598;-82
2022/04/22 02:02:29;;;;;;;6.82;4.68;;;;;;;;;;5051847;28;20088;-82
2022/04/22 02:04:55;;;;;;;6.85;4.90;;;;;;;;;;5051560;28;20080;-83
2022/04/22 02:07:22;;;;;;;7.10;4.93;;;;;;;;;;5050116;28;20076;-83
2022/04/22 02:09:49;;;;;;;5.70;4.45;;;;;;;;;;5050135;28;20079;-83
2022/04/22 02:12:15;;;;;;;6.72;5.30;;;;;;;;;;5051296;28;20493;-83
2022/04/22 02:14:42;;;;;;;6.63;5.32;;;;;;;;;;5051382;28;20128;-81
2022/04/22 02:17:08;;;;;;;5.82;5.30;;;;;;;;;;5051489;28;20041;-82
2022/04/22 02:19:35;;;;;;;8.07;5.32;;;;;;;;;;5051593;28;20433;-81
2022/04/22 02:22:01;;;;;;;5.38;4.68;;;;;;;;;;5051301;28;20085;-82
2022/04/22 02:24:28;;;;;;;5.55;4.43;;;;;;;;;;5050529;28;20079;-82
2022/04/22 02:29:40;;;;;;;6.20;4.65;;;;;;;;;;5051675;28;20080;-82
2022/04/22 02:32:07;;;;;;;6.57;4.95;;;;;;;;;;5049962;28;20053;-82
2022/04/22 02:34:33;;;;;;;5.95;5.15;;;;;;;;;;5051341;28;20080;-82
2022/04/22 02:37:00;;;;;;;7.05;5.22;;;;;;;;;;5050755;28;20052;-82
2022/04/22 02:39:27;;;;;;;5.70;5.20;;;;;;;;;;5049604;28;20080;-82
2022/04/22 02:47:23;;;;;;;6.93;4.90;;;;;;;;;;5050820;28;20076;-82
2022/04/22 02:49:50;;;;;;;7.47;5.68;;;;;;;;;;5050742;28;20540;-82
2022/04/22 02:52:16;;;;;;;6.38;5.75;;;;;;;;;;5051157;28;20081;-82
2022/04/22 02:54:43;;;;;;;7.40;5.65;;;;;;;;;;5049709;28;20124;-82
2022/04/22 02:57:09;;;;;;;7.97;5.82;;;;;;;;;;5050823;28;20444;-82
2022/04/22 02:59:37;;;;;;;6.13;5.53;;;;;;;;;;5050887;28;20079;-82
2022/04/22 03:02:04;;;;;;;6.40;5.25;;;;;;;;;;5049517;28;20048;-82
2022/04/22 03:04:31;;;;;;;;;;;;;;;;;;5051492;28;20128;-82
2022/04/22 03:06:58;;;;;;;6.50;5.03;;;;;;;;;;5050857;28;19924;-81
2022/04/22 03:09:24;;;;;;;6.75;5.32;;;;;;;;;;5050731;28;20321;-82
2022/04/22 03:11:51;;;;;;;7.40;5.60;;;;;;;;;;5050590;28;20080;-82
2022/04/22 03:14:19;;;;;;;8.93;5.55;;;;;;;;;;5051125;28;20076;-82
2022/04/22 03:16:45;;;;;;;10.43;5.63;;;;;;;;;;5050936;28;20335;-82
2022/04/22 03:19:12;;;;;;;6.43;5.32;;;;;;;;;;5050746;28;20504;-82
2022/04/22 03:21:39;;;;;;;6.90;6.20;;;;;;;;;;5050777;28;20052;-82
2022/04/22 03:24:06;;;;;;;9.23;5.88;;;;;;;;;;5065808;28;20052;-82
2022/04/22 03:26:33;;;;;;;10.15;6.38;;;;;;;;;;5050757;28;20098;-82
2022/04/22 03:28:59;;;;;;;7.90;5.50;;;;;;;;;;5049324;28;20049;-82
2022/04/22 03:31:26;;;;;;;7.05;6.32;;;;;;;;;;5049134;28;20158;-83
2022/04/22 03:33:52;;;;;;;8.63;6.28;;;;;;;;;;5050320;28;20053;-82
2022/04/22 03:36:19;;;;;;;7.07;5.55;;;;;;;;;;5050573;28;20049;-82
2022/04/22 03:38:48;;;;;;;8.48;6.25;;;;;;;;;;5050645;28;20044;-83
2022/04/22 03:41:15;;;;;;;6.40;5.70;;;;;;;;;;5050449;28;20106;-84
2022/04/22 03:43:41;;;;;;;9.32;6.47;;;;;;;;;;5049114;28;20080;-84
2022/04/22 03:46:08;;;;;;;6.68;5.95;;;;;;;;;;5049021;28;20085;-84
2022/04/22 03:48:35;;;;;;;9.30;6.07;;;;;;;;;;5052604;28;20535;-82
2022/04/22 03:51:01;;;;;;;7.50;6.00;;;;;;;;;;5054184;28;20080;-82
2022/04/22 03:53:28;;;;;;;8.88;5.88;;;;;;;;;;5052532;28;20072;-82
2022/04/22 03:55:54;;;;;;;8.98;6.65;;;;;;;;;;5054166;28;20076;-80
2022/04/22 03:58:20;;;;;;;10.45;6.57;;;;;;;;;;5053876;28;20110;-80
2022/04/22 04:00:48;;;;;;;9.35;6.70;;;;;;;;;;5052850;28;20111;-81
2022/04/22 04:03:16;;;;;;;8.73;6.78;;;;;;;;;;5053902;28;20060;-81
2022/04/22 04:05:47;;;;;;;7.07;5.78;;;;;;;;;;5052582;28;20453;-82
2022/04/22 04:08:14;;;;;;;9.43;7.03;;;;;;;;;;5053774;28;20049;-82
2022/04/22 04:16:10;;;;;;;8.85;6.80;;;;;;;;;;5053687;28;20562;-82
2022/04/22 04:18:38;;;;;;;10.82;7.20;;;;;;;;;;5053829;28;20048;-80
2022/04/22 04:23:51;;;;;;;8.65;7.07;;;;;;;;;;5053469;28;20080;-82
2022/04/22 04:26:18;;;;;;;9.80;7.32;;;;;;;;;;5052091;28;20522;-82
2022/04/22 04:28:47;;;;;;;9.73;7.78;;;;;;;;;;5053272;28;20120;-82
2022/04/22 04:31:14;;;;;;;8.20;7.38;;;;;;;;;;5053631;28;20056;-81
2022/04/22 04:33:41;;;;;;;8.30;7.20;;;;;;;;;;5053167;28;20056;-81
2022/04/22 04:36:13;;;;;;;9.52;7.38;;;;;;;;;;5053438;28;20049;-83
2022/04/22 04:38:40;;;;;;;10.45;7.45;;;;;;;;;;5052154;28;20049;-82
2022/04/22 04:41:08;;;;;;;10.75;8.10;;;;;;;;;;5053323;28;20048;-82
2022/04/22 04:43:35;;;;;;;9.23;7.82;;;;;;;;;;5068726;28;20080;-82
2022/04/22 04:46:02;;;;;;;10.52;7.47;;;;;;;;;;5052942;28;20512;-82
2022/04/22 04:48:29;;;;;;;9.68;7.68;;;;;;;;;;5051693;28;20049;-82
2022/04/22 04:50:55;;;;;;;10.70;7.75;;;;;;;;;;5053082;28;20049;-82
2022/04/22 04:53:25;;;;;;;10.75;8.07;;;;;;;;;;5052769;28;20069;-81
2022/04/22 04:55:52;;;;;;;13.00;8.45;;;;;;;;;;5051530;28;20045;-82
2022/04/22 04:58:19;;;;;;;10.57;8.15;;;;;;;;;;5051469;28;20115;-81
2022/04/22 05:00:46;;;;;;;10.57;8.30;;;;;;;;;;5052202;28;20108;-82
2022/04/22 05:03:13;;;;;;;10.13;8.20;;;;;;;;;;5051398;28;20416;-82
2022/04/22 05:05:39;;;;;;;10.20;8.30;;;;;;;;;;5053014;28;20081;-82
2022/04/22 05:08:07;;;;;;;10.52;7.82;;;;;;;;;;5052459;28;20045;-82
2022/04/22 05:10:35;;;;;;;10.68;8.38;;;;;;;;;;5051314;28;20558;-82
2022/04/22 05:13:03;;;;;;;10.85;8.82;;;;;;;;;;5052527;28;20099;-82
2022/04/22 05:15:30;;;;;;;10.88;9.10;;;;;;;;;;5051174;28;20103;-82
2022/04/22 05:17:57;;;;;;;10.55;8.57;;;;;;;;;;5052342;28;20104;-82
2022/04/22 05:20:27;;;;;;;12.70;8.88;;;;;;;;;;5052358;28;20099;-82
2022/04/22 05:22:54;;;;;;;10.98;8.88;;;;;;;;;;5052358;28;20052;-82
2022/04/22 05:25:21;;;;;;;10.90;8.40;;;;;;;;;;5052278;28;20655;-82
2022/04/22 05:27:48;;;;;;;11.27;8.95;;;;;;;;;;5052304;28;20084;-82
2022/04/22 05:33:00;;;;;;;13.02;8.85;;;;;;;;;;5052182;28;20128;-82
2022/04/22 05:35:27;;;;;;;12.85;8.80;;;;;;;;;;5050866;28;20053;-82
2022/04/22 05:37:58;;;;;;;13.82;9.32;;;;;;;;;;5051983;28;20488;-82
2022/04/22 05:40:26;;;;;;;13.85;10.10;;;;;;;;;;5052171;28;20225;-82
2022/04/22 05:42:53;;;;;;;12.13;9.80;;;;;;;;;;5052083;28;20134;-82
2022/04/22 05:45:20;;;;;;;10.97;9.00;;;;;;;;;;5051903;28;20102;-83
2022/04/22 05:47:47;;;;;;;13.02;10.00;;;;;;;;;;5050636;28;20128;-82
2022/04/22 05:50:16;;;;;;;12.65;10.63;;;;;;;;;;5052113;28;20048;-82
2022/04/22 05:52:42;;;;;;;14.73;10.48;;;;;;;;;;5051840;28;20084;-82
2022/04/22 05:55:10;;;;;;;13.88;10.77;;;;;;;;;;5050926;28;20131;-82
2022/04/22 05:57:36;;;;;;;;;;;;;;;;;;5051096;28;20478;-82
2022/04/22 06:00:04;;;;;;;16.38;11.68;;;;;;;;;;5051752;28;19933;-82
2022/04/22 06:02:31;;;;;;;12.88;11.15;;;;;;;;;;5050533;28;20100;-82
2022/04/22 06:04:57;;;;;;;16.67;11.50;;;;;;;;;;5050284;28;20049;-82
2022/04/22 06:07:24;;;;;;;18.40;13.45;;;;;;;;;;5050079;28;20096;-82
2022/04/22 06:12:35;;;;;;;16.30;13.20;;;;;;;;;;5050594;28;20068;-85
2022/04/22 06:15:04;;;;;;;15.93;12.52;;;;;;;;;;5051620;28;20084;-85
2022/04/22 06:17:31;;;;;;;18.83;13.80;;;;;;;;;;5051664;28;20045;-81
2022/04/22 06:19:58;;;;;;;17.50;13.45;;;;;;;;;;5051338;28;20132;-82
2022/04/22 06:22:26;;;;;;;18.40;14.37;;;;;;;;;;5049947;28;20432;-82
2022/04/22 06:24:53;;;;;;;17.63;13.35;;;;;;;;;;5051369;28;20122;-82
2022/04/22 06:27:23;;;;;;;19.13;15.47;;;;;;;;;;5050064;28;20075;-82
2022/04/22 06:29:51;;;;;;;17.02;14.43;;;;;;;;;;5049821;28;20582;-81
2022/04/22 06:32:18;;;;;;;17.88;14.45;;;;;;;;;;5049851;28;20053;-79
2022/04/22 06:34:44;;;;;;;17.75;14.63;;;;;;;;;;5051398;28;20087;-81
2022/04/22 06:37:11;;;;;;;22.85;15.63;;;;;;;;;;5049925;28;20080;-83
2022/04/22 06:47:55;;;;;;;19.42;15.75;;;;;;;;;;5051200;28;20080;-83
2022/04/22 06:50:22;;;;;;;20.52;15.88;;;;;;;;;;5051026;28;20080;-83
2022/04/22 06:52:49;;;;;;;20.70;15.73;;;;;;;;;;5051005;28;20075;-83
2022/04/22 06:55:16;;;;;;;17.52;15.20;;;;;;;;;;5051109;28;20114;-83
2022/04/22 06:57:49;;;;;;;20.38;15.88;;;;;;;;;;5050738;28;20512;-81
2022/04/22 07:00:16;;;;;;;21.63;15.48;;;;;;;;;;5037412;28;20121;-78
2022/04/22 07:02:42;;;;;;;18.67;16.48;;;;;;;;;;5051009;28;20179;-80
2022/04/22 07:05:10;;;;;;;19.75;16.10;;;;;;;;;;5050925;28;20053;-79
2022/04/22 07:07:36;;;;;;;20.50;15.65;;;;;;;;;;5050578;28;20084;-78
2022/04/22 07:10:03;;;;;;;18.70;14.93;;;;;;;;;;5049615;28;20076;-79
2022/04/22 07:12:31;;;;;;;18.65;15.68;;;;;;;;;;5049692;28;20091;-75
2022/04/22 07:15:03;;;;;;;;;;;;;;;;;;5051132;28;20045;-85
2022/04/22 07:17:33;;;;;;;16.40;14.65;;;;;;;;;;5051026;28;19925;-83
2022/04/22 07:20:05;;;;;;;19.65;16.30;;;;;;;;;;5049439;28;20081;-81
2022/04/22 07:22:32;;;;;;;18.63;15.55;;;;;;;;;;5051701;28;20084;-84
2022/04/22 07:24:59;;;;;;;19.75;15.85;;;;;;;;;;5054477;28;20459;-81
2022/04/22 07:27:27;;;;;;;19.95;16.92;;;;;;;;;;5054723;28;20084;-81
2022/04/22 07:29:54;;;;;;;21.45;16.25;;;;;;;;;;5054800;28;20087;-78
2022/04/22 07:32:21;;;;;;;19.98;16.55;;;;;;;;;;5053153;28;20048;-78
2022/04/22 07:34:48;;;;;;;21.85;18.05;;;;;;;;;;5053211;28;20094;-77
2022/04/22 07:37:14;;;;;;;20.70;16.08;;;;;;;;;;5052607;28;20098;-77
2022/04/22 07:39:41;;;;;;;18.63;15.90;;;;;;;;;;5054196;28;20475;-80
2022/04/22 07:42:08;;;;;;;20.63;16.33;;;;;;;;;;5054649;28;20048;-78
2022/04/22 07:47:19;;;;;;;20.58;16.88;;;;;;;;;;5053567;28;20080;-90
2022/04/22 07:49:46;;;;;;;21.27;16.38;;;;;;;;;;5052053;28;20099;-82
2022/04/22 07:52:12;;;;;;;22.23;17.17;;;;;;;;;;5052511;28;20320;-88
2022/04/22 07:54:39;;;;;;;19.77;16.48;;;;;;;;;;5053844;28;20088;-82
2022/04/22 07:57:05;;;;;;;22.17;16.67;;;;;;;;;;5053515;28;20045;-83
2022/04/22 07:59:32;;;;;;;19.55;16.33;;;;;;;;;;5053558;28;20049;-77
2022/04/22 08:01:59;;;;;;;;;;;;;;;;;;5052874;28;20073;-78
2022/04/22 08:04:26;;;;;;;23.05;17.38;;;;;;;;;;5051937;28;20247;-81
2022/04/22 08:06:53;;;;;;;22.00;17.87;;;;;;;;;;5053303;28;20049;-85
2022/04/22 08:09:39;;;;;;;19.45;17.30;;;;;;;;;;5052258;28;20132;-82
2022/04/22 08:12:07;;;;;;;22.05;17.63;;;;;;;;;;5052860;28;20118;-71
2022/04/22 08:14:34;;;;;;;20.25;16.90;;;;;;;;;;5052308;28;20068;-70
2022/04/22 08:17:01;;;;;;;22.48;16.33;;;;;;;;;;5053413;28;20079;-79
2022/04/22 08:19:27;;;;;;;22.95;17.75;;;;;;;;;;5053448;28;20053;-74
2022/04/22 08:21:54;;;;;;;20.80;16.77;;;;;;;;;;5052052;28;20045;-77
2022/04/22 08:24:20;;;;;;;21.45;17.98;;;;;;;;;;5052166;28;20163;-74
2022/04/22 08:26:47;;;;;;;20.27;16.52;;;;;;;;;;5050773;28;20078;-80
2022/04/22 08:29:19;;;;;;;23.08;18.02;;;;;;;;;;5051880;28;20079;-87
2022/04/22 08:31:45;;;;;;;21.17;16.48;;;;;;;;;;5051684;28;20179;-76
2022/04/22 08:34:12;;;;;;;19.30;16.40;;;;;;;;;;5050924;28;20528;-73
2022/04/22 08:36:38;;;;;;;19.25;16.80;;;;;;;;;;5052261;28;20041;-67
2022/04/22 08:39:05;;;;;;;20.63;17.80;;;;;;;;;;5052012;28;20080;-72
2022/04/22 08:41:33;;;;;;;21.73;17.17;;;;;;;;;;5051911;28;20144;-73
2022/04/22 08:43:59;;;;;;;21.35;16.45;;;;;;;;;;5048872;28;20367;-74
2022/04/22 08:51:58;;;;;;;21.52;16.23;;;;;;;;;;5051734;28;20329;-72
2022/04/22 08:54:28;;;;;;;19.95;15.65;;;;;;;;;;5051755;28;20045;-75
2022/04/22 08:56:55;;;;;;;19.47;14.90;;;;;;;;;;5051161;28;20064;-74
2022/04/22 08:59:22;;;;;;;19.63;15.27;;;;;;;;;;5048424;28;20281;-71
2022/04/22 09:01:49;;;;;;;17.60;14.75;;;;;;;;;;5050566;28;20076;-78
2022/04/22 09:04:15;;;;;;;19.02;15.40;;;;;;;;;;5049939;28;20056;-70
2022/04/22 09:06:45;;;;;;;20.35;15.18;;;;;;;;;;5051535;28;20083;-72
2022/04/22 09:09:12;;;;;;;23.33;15.55;;;;;;;;;;5051101;28;20045;-75
2022/04/22 09:11:42;;;;;;;20.45;14.95;;;;;;;;;;5049644;28;20473;-80
2022/04/22 09:14:09;;;;;;;19.60;15.27;;;;;;;;;;5047789;28;20041;-73
2022/04/22 09:16:37;;;;;;;20.10;15.07;;;;;;;;;;5050893;28;20053;-75
2022/04/22 09:19:03;;;;;;;16.88;13.88;;;;;;;;;;5050881;28;20057;-71
2022/04/22 09:21:29;;;;;;;19.70;15.55;;;;;;;;;;5051107;28;20126;-77
2022/04/22 09:23:56;;;;;;;18.83;14.77;;;;;;;;;;5050618;28;20137;-72
2022/04/22 09:26:24;;;;;;;18.75;14.27;;;;;;;;;;5051013;28;20072;-70
2022/04/22 09:29:00;;;;;;;18.63;13.73;;;;;;;;;;5050256;28;20469;-72
2022/04/22 09:31:27;;;;;;;18.80;14.13;;;;;;;;;;5050384;28;20095;-76
2022/04/22 09:33:54;;;;;;;15.90;13.73;;;;;;;;;;5050760;28;20053;-74
2022/04/22 09:44:55;;;;;;;16.45;13.38;;;;;;;;;;5050987;28;20091;-76
2022/04/22 09:47:27;;;;;;;19.15;13.30;;;;;;;;;;5048773;28;20079;-75
2022/04/22 09:49:54;;;;;;;16.30;12.80;;;;;;;;;;5050222;28;20131;-76
2022/04/22 09:52:24;;;;;;;16.87;13.50;;;;;;;;;;5050279;28;20090;-76
2022/04/22 09:55:01;;;;;;;19.67;13.30;;;;;;;;;;5050196;28;20293;-73
2022/04/22 09:58:03;;;;;;;17.75;13.63;;;;;;;;;;5050268;28;20052;-74
2022/04/22 10:00:30;;;;;;;15.32;13.50;;;;;;;;;;5044477;28;20076;-71
2022/04/22 10:02:57;;;;;;;17.63;13.32;;;;;;;;;;5049119;28;20056;-73
2022/04/22 10:05:25;;;;;;;18.48;13.73;;;;;;;;;;5050144;28;20406;-74
2022/04/22 10:07:53;;;;;;;20.23;14.05;;;;;;;;;;5049258;28;20131;-74
2022/04/22 10:10:23;;;;;;;15.88;13.80;;;;;;;;;;5050382;28;20128;-74
2022/04/22 10:12:52;;;;;;;19.27;14.15;;;;;;;;;;5048588;28;20045;-71
2022/04/22 10:15:19;;;;;;;19.52;14.85;;;;;;;;;;5035149;28;20447;-69
2022/04/22 10:17:49;;;;;;;20.17;15.25;;;;;;;;;;5035998;28;20503;-69
2022/04/22 10:20:15;;;;;;;17.75;14.80;;;;;;;;;;5048698;28;20076;-71
2022/04/22 10:22:42;;;;;;;17.42;13.68;;;;;;;;;;5049054;28;20076;-74
2022/04/22 10:25:09;;;;;;;16.43;13.77;;;;;;;;;;5050366;28;20084;-69
2022/04/22 10:27:39;;;;;;;19.73;15.35;;;;;;;;;;5047132;28;20084;-68
2022/04/22 10:30:26;;;;;;;18.92;13.93;;;;;;;;;;5049544;28;20045;-69
2022/04/22 10:32:53;;;;;;;17.17;13.00;;;;;;;;;;5048260;28;20463;-70
2022/04/22 10:35:23;;;;;;;18.13;13.43;;;;;;;;;;5049970;28;20099;-69
2022/04/22 10:37:52;;;;;;;16.52;13.90;;;;;;;;;;5050112;28;20141;-66
2022/04/22 10:40:19;;;;;;;15.23;12.75;;;;;;;;;;5049901;28;20055;-72
2022/04/22 10:42:47;;;;;;;18.25;13.00;;;;;;;;;;5049991;28;20057;-73
2022/04/22 10:47:59;;;;;;;14.27;11.73;;;;;;;;;;5049674;28;20049;-74
2022/04/22 10:50:29;;;;;;;14.77;11.43;;;;;;;;;;5049965;28;20139;-72
2022/04/22 10:53:03;;;;;;;14.70;11.77;;;;;;;;;;5048866;28;20091;-71
2022/04/22 10:55:30;;;;;;;18.17;12.73;;;;;;;;;;5049537;28;20041;-72
2022/04/22 10:58:12;;;;;;;18.98;11.95;;;;;;;;;;5048011;28;20083;-70
2022/04/22 11:00:45;;;;;;;14.20;11.55;;;;;;;;;;5049145;28;20110;-73
2022/04/22 11:03:19;;;;;;;11.85;10.13;;;;;;;;;;5049667;28;20456;-72
2022/04/22 11:05:56;;;;;;;12.15;9.73;;;;;;;;;;5046348;28;20060;-68
2022/04/22 11:08:30;;;;;;;11.33;9.60;;;;;;;;;;5048388;28;20044;-72
2022/04/22 11:10:57;;;;;;;16.35;10.07;;;;;;;;;;5048452;28;20045;-73
2022/04/22 11:13:42;;;;;;;15.45;10.15;;;;;;;;;;5047487;28;20748;-72
2022/04/22 11:16:13;;;;;;;13.75;10.15;;;;;;;;;;5049629;28;20102;-72
2022/04/22 11:18:40;;;;;;;11.95;9.65;;;;;;;;;;5049816;28;20045;-81
2022/04/22 11:21:07;;;;;;;;;;;;;;;;;;5048926;28;20077;-73
2022/04/22 11:23:38;;;;;;;12.65;9.52;;;;;;;;;;5049781;28;20230;-72
2022/04/22 11:26:04;;;;;;;12.70;9.52;;;;;;;;;;5049423;28;20072;-76
2022/04/22 11:28:35;;;;;;;10.23;9.13;;;;;;;;;;5049632;28;20045;-80
2022/04/22 11:31:03;;;;;;;13.27;9.02;;;;;;;;;;5046215;28;20045;-72
2022/04/22 11:33:34;;;;;;;14.07;9.60;;;;;;;;;;5048944;28;20069;-70
2022/04/22 11:36:06;;;;;;;11.48;9.15;;;;;;;;;;5045462;28;20057;-67
2022/04/22 11:38:33;;;;;;;13.25;9.60;;;;;;;;;;5048889;28;20110;-72
2022/04/22 11:40:59;;;;;;;11.10;9.40;;;;;;;;;;5049302;28;20520;-71
2022/04/22 11:43:29;;;;;;;12.20;9.32;;;;;;;;;;5049522;28;20085;-71
2022/04/22 11:45:55;;;;;;;11.90;9.20;;;;;;;;;;5049085;28;20084;-72
2022/04/22 11:48:23;;;;;;;13.10;9.07;;;;;;;;;;5049195;28;20103;-79
2022/04/22 11:50:50;;;;;;;13.15;9.27;;;;;;;;;;5049648;28;20084;-67
2022/04/22 11:53:23;;;;;;;10.90;8.35;;;;;;;;;;5049090;28;20049;-68
2022/04/22 11:55:50;;;;;;;14.13;9.38;;;;;;;;;;5048969;28;20493;-68
2022/04/22 11:58:17;;;;;;;10.30;8.65;;;;;;;;;;5049074;28;20449;-68
2022/04/22 12:06:15;;;;;;;12.60;9.13;;;;;;;;;;5048920;28;20126;-67
2022/04/22 12:08:57;;;;;;;13.13;9.37;;;;;;;;;;5049151;28;20097;-67
2022/04/22 12:11:24;;;;;;;13.98;8.93;;;;;;;;;;5051689;28;20144;-70
2022/04/22 12:13:51;;;;;;;11.38;9.60;;;;;;;;;;5052600;28;20127;-68
2022/04/22 12:16:18;;;;;;;12.43;8.95;;;;;;;;;;5052573;28;20072;-67
2022/04/22 12:18:46;;;;;;;12.13;8.90;;;;;;;;;;5052165;28;20049;-73
2022/04/22 12:21:12;;;;;;;12.20;8.35;;;;;;;;;;5052318;28;20083;-81
2022/04/22 12:23:40;;;;;;;9.75;8.43;;;;;;;;;;5052133;28;20048;-78
2022/04/22 12:26:15;;;;;;;10.65;8.85;;;;;;;;;;5051193;28;20049;-67
2022/04/22 12:29:00;;;;;;;14.60;9.52;;;;;;;;;;5052114;28;20128;-70
2022/04/22 12:31:27;;;;;;;12.10;9.10;;;;;;;;;;5052399;28;20091;-69
2022/04/22 12:34:01;;;;;;;10.63;8.85;;;;;;;;;;5050678;28;20045;-72
2022/04/22 12:36:28;;;;;;;9.90;8.90;;;;;;;;;;5051678;28;20554;-70
2022/04/22 12:38:55;;;;;;;13.05;9.25;;;;;;;;;;5052139;28;20103;-68
2022/04/22 12:41:23;;;;;;;12.60;8.20;;;;;;;;;;5051504;28;20045;-70
2022/04/22 12:43:50;;;;;;;15.25;8.55;;;;;;;;;;5050457;28;20701;-73
2022/04/22 12:52:12;;;;;;;11.88;8.45;;;;;;;;;;5036357;28;20095;-69
2022/04/22 12:54:39;;;;;;;10.52;9.05;;;;;;;;;;5046773;28;20059;-68
2022/04/22 12:57:05;;;;;;;14.23;9.57;;;;;;;;;;5051071;28;20524;-71
2022/04/22 12:59:41;;;;;;;14.18;9.88;;;;;;;;;;5051839;28;20057;-74
2022/04/22 13:02:09;;;;;;;13.02;9.60;;;;;;;;;;5050498;28;20071;-68
2022/04/22 13:04:49;;;;;;;16.23;10.52;;;;;;;;;;5051584;28;20774;-71
2022/04/22 13:07:15;;;;;;;12.88;10.15;;;;;;;;;;5051532;28;20084;-73
2022/04/22 13:09:41;;;;;;;11.40;10.07;;;;;;;;;;5051507;28;20049;-70
2022/04/22 13:12:08;;;;;;;15.32;10.30;;;;;;;;;;5049386;28;20084;-70
2022/04/22 13:14:34;;;;;;;12.30;9.67;;;;;;;;;;5051778;28;20083;-71
2022/04/22 13:17:01;;;;;;;10.75;9.40;;;;;;;;;;5051234;28;20127;-72
2022/04/22 13:19:28;;;;;;;15.63;9.60;;;;;;;;;;5051773;28;20080;-72
2022/04/22 13:21:54;;;;;;;11.80;9.57;;;;;;;;;;5050514;28;20142;-71
2022/04/22 13:24:21;;;;;;;13.02;9.82;;;;;;;;;;5050815;28;20100;-76
2022/04/22 13:26:47;;;;;;;13.38;9.15;;;;;;;;;;5049417;28;20079;-76
2022/04/22 13:29:13;;;;;;;12.80;9.45;;;;;;;;;;5049499;28;20044;-75
2022/04/22 13:31:40;;;;;;;16.27;9.90;;;;;;;;;;5048022;28;20084;-75
2022/04/22 13:34:06;;;;;;;11.63;9.55;;;;;;;;;;5050790;28;20106;-75
2022/04/22 13:36:36;;;;;;;12.90;9.70;;;;;;;;;;5051272;28;20053;-74
2022/04/22 13:39:04;;;;;;;15.63;9.30;;;;;;;;;;5049663;28;20168;-75
2022/04/22 13:41:30;;;;;;;11.85;9.23;;;;;;;;;;5050953;28;20080;-78
2022/04/22 13:43:56;;;;;;;11.80;8.80;;;;;;;;;;5051011;28;20053;-74
2022/04/22 13:54:38;;;;;;;9.90;8.25;;;;;;;;;;5050892;28;20041;-73
2022/04/22 13:57:05;;;;;;;10.95;8.40;;;;;;;;;;5049351;28;20057;-72
2022/04/22 13:59:33;;;;;;;11.83;8.50;;;;;;;;;;5050449;28;20148;-73
2022/04/22 14:01:59;;;;;;;;;;;;;;;;;;5051201;28;20049;-73
2022/04/22 14:04:26;;;;;;;12.93;8.85;;;;;;;;;;5049195;28;20054;-76
2022/04/22 14:06:52;;;;;;;10.73;7.03;;;;;;;;;;5049313;28;20053;-76
2022/04/22 14:09:19;;;;;;;12.70;7.75;;;;;;;;;;5050613;28;20083;-77
2022/04/22 14:11:46;;;;;;;10.73;7.57;;;;;;;;;;5048126;28;20685;-78
2022/04/22 14:14:12;;;;;;;9.80;7.30;;;;;;;;;;5049114;28;20501;-73
2022/04/22 14:16:39;;;;;;;10.23;8.38;;;;;;;;;;5050476;28;20095;-77
2022/04/22 14:19:05;;;;;;;7.95;6.68;;;;;;;;;;5050252;28;20049;-74
2022/04/22 14:21:32;;;;;;;11.60;7.18;;;;;;;;;;5050489;28;20131;-77
2022/04/22 14:24:00;;;;;;;;;;;;;;;;;;5049587;28;20477;-77
2022/04/22 14:26:27;;;;;;;8.90;6.35;;;;;;;;;;5049081;28;19932;-73
2022/04/22 14:29:11;;;;;;;8.38;6.35;;;;;;;;;;5049240;28;20045;-79
2022/04/22 14:31:37;;;;;;;8.23;5.67;;;;;;;;;;5048432;28;20053;-74
2022/04/22 14:34:04;;;;;;;7.57;5.32;;;;;;;;;;5049527;28;20060;-78
2022/04/22 14:36:31;;;;;;;6.20;5.55;;;;;;;;;;5049107;28;20053;-74
2022/04/22 14:38:57;;;;;;;6.63;5.45;;;;;;;;;;5049887;28;20120;-75
2022/04/22 14:41:24;;;;;;;8.90;5.18;;;;;;;;;;5049447;28;20091;-76
2022/04/22 14:43:50;;;;;;;7.82;5.47;;;;;;;;;;5049695;28;20102;-76
2022/04/22 14:46:17;;;;;;;9.93;6.38;;;;;;;;;;5048693;28;20405;-75
2022/04/22 14:48:44;;;;;;;8.73;5.95;;;;;;;;;;5050046;28;20057;-77
2022/04/22 14:51:11;;;;;;;8.65;6.10;;;;;;;;;;5049876;28;20061;-76
2022/04/22 14:53:37;;;;;;;6.88;5.30;;;;;;;;;;5049994;28;20500;-78
2022/04/22 14:56:04;;;;;;;12.13;5.47;;;;;;;;;;5048407;28;20492;-77
2022/04/22 14:58:30;;;;;;;7.25;5.35;;;;;;;;;;5049631;28;20080;-78
2022/04/22 15:00:57;;;;;;;9.80;5.65;;;;;;;;;;5050016;28;20088;-78
2022/04/22 15:03:24;;;;;;;7.55;5.22;;;;;;;;;;5049622;28;20497;-78
2022/04/22 15:05:53;;;;;;;5.32;4.82;;;;;;;;;;5047784;28;20049;-76
2022/04/22 15:08:20;;;;;;;6.80;5.80;;;;;;;;;;5064238;28;20072;-76
2022/04/22 15:10:46;;;;;;;13.63;7.10;;;;;;;;;;5047728;28;20576;-78
2022/04/22 15:13:13;;;;;;;11.68;6.32;;;;;;;;;;5046998;28;20112;-78
2022/04/22 15:15:40;;;;;;;6.32;4.82;;;;;;;;;;5047581;28;20498;-78
2022/04/22 15:26:22;;;;;;;5.60;4.63;;;;;;;;;;5049440;28;20048;-74
2022/04/22 15:28:48;;;;;;;6.95;4.93;;;;;;;;;;5049680;28;20053;-73
2022/04/22 15:31:15;;;;;;;6.05;4.60;;;;;;;;;;5048907;28;20049;-71
2022/04/22 15:33:42;;;;;;;5.20;4.07;;;;;;;;;;5048700;28;20099;-72
2022/04/22 15:36:10;;;;;;;6.97;4.05;;;;;;;;;;5048678;28;20072;-75
2022/04/22 15:38:41;;;;;;;8.07;4.07;;;;;;;;;;5047493;28;20071;-73
2022/04/22 15:41:15;;;;;;;5.13;3.80;;;;;;;;;;5047685;28;20064;-76
2022/04/22 15:43:42;;;;;;;7.03;4.50;;;;;;;;;;5049991;28;20393;-73
2022/04/22 15:46:09;;;;;;;5.40;4.15;;;;;;;;;;5052698;28;20068;-72
2022/04/22 15:48:36;;;;;;;6.10;4.37;;;;;;;;;;5052836;28;20115;-72
2022/04/22 15:51:04;;;;;;;4.57;3.55;;;;;;;;;;5052853;28;20049;-76
2022/04/22 15:53:31;;;;;;;5.53;3.80;;;;;;;;;;5051728;28;20052;-76
2022/04/22 15:55:57;;;;;;;5.53;3.90;;;;;;;;;;5053151;28;20057;-77
2022/04/22 15:58:30;;;;;;;4.63;3.90;;;;;;;;;;5069036;28;20085;-80
2022/04/22 16:00:57;;;;;;;5.80;4.07;;;;;;;;;;5052330;28;20053;-75